Time;durP1;ratioP1;P1;durP2;ratioP2;P2;SDS_P1;SDS_P2;PMS_P1;PMS_P2;Temp;Humidity;BMP_temperature;BMP_pressure;BME280_temperature;BME280_humidity;BME280_pressure;Samples;Min_cycle;Max_cycle;Signal;HPM_P1;HPM_P2
2022/11/29 00:01:14;;;;;;;31.10;25.20;;;8.50;99.90;;;;;;5023609;28;20491;-79
2022/11/29 00:03:40;;;;;;;26.03;23.60;;;8.50;99.90;;;;;;4997352;28;20031;-79
2022/11/29 00:06:14;;;;;;;28.70;22.97;;;8.50;99.90;;;;;;4990665;28;20498;-79
2022/11/29 00:08:40;;;;;;;30.37;17.80;;;8.40;99.90;;;;;;4999528;28;20039;-79
2022/11/29 00:12:10;;;;;;;26.83;21.57;;;8.40;99.90;;;;;;4975043;28;20041;-79
2022/11/29 00:14:00;;;;;;;26.67;23.43;;;8.30;99.90;;;;;;5005398;28;20034;-79
2022/11/29 00:16:27;;;;;;;34.27;25.00;;;8.40;99.90;;;;;;4974856;28;20053;-79
2022/11/29 00:18:53;;;;;;;32.37;22.43;;;8.30;99.90;;;;;;4992164;28;20034;-79
2022/11/29 00:21:19;;;;;;;29.40;24.07;;;8.30;99.90;;;;;;4990388;28;20041;-79
2022/11/29 00:23:45;;;;;;;26.30;23.37;;;8.40;99.90;;;;;;5024390;28;20041;-80
2022/11/29 00:26:11;;;;;;;25.87;22.27;;;8.30;99.90;;;;;;5006647;28;20058;-79
2022/11/29 00:28:37;;;;;;;23.73;17.37;;;8.40;99.90;;;;;;4992105;28;20038;-79
2022/11/29 00:31:20;;;;;;;29.90;16.73;;;8.30;99.90;;;;;;5006906;28;20405;-79
2022/11/29 00:33:46;;;;;;;27.27;18.37;;;8.30;99.90;;;;;;5017970;28;20035;-79
2022/11/29 00:36:12;;;;;;;28.03;22.53;;;8.30;99.90;;;;;;4972129;28;20038;-79
2022/11/29 00:38:38;;;;;;;28.83;24.57;;;8.30;99.90;;;;;;4990732;28;20034;-79
2022/11/29 00:41:04;;;;;;;27.87;24.53;;;8.30;99.90;;;;;;4991684;28;20034;-79
2022/11/29 00:43:30;;;;;;;32.07;19.77;;;8.20;99.90;;;;;;4990892;28;20049;-79
2022/11/29 00:45:56;;;;;;;22.43;19.73;;;8.20;99.90;;;;;;4989833;28;20495;-79
2022/11/29 00:48:23;;;;;;;25.43;17.23;;;8.30;99.90;;;;;;4959736;28;20058;-79
2022/11/29 00:50:49;;;;;;;23.90;16.67;;;8.20;99.90;;;;;;4991273;28;20037;-79
2022/11/29 00:53:15;;;;;;;25.10;17.57;;;8.10;99.90;;;;;;4992854;28;20375;-79
2022/11/29 00:55:43;;;;;;;26.63;17.77;;;8.20;99.90;;;;;;4988669;28;20030;-79
2022/11/29 00:58:09;;;;;;;28.63;20.93;;;8.20;99.90;;;;;;4973580;28;20026;-79
2022/11/29 01:00:35;;;;;;;25.53;18.77;;;8.10;99.90;;;;;;4992736;28;20026;-79
2022/11/29 01:03:01;;;;;;;27.03;18.87;;;8.00;99.90;;;;;;5006859;28;20037;-80
2022/11/29 01:05:29;;;;;;;26.50;18.70;;;8.00;99.90;;;;;;5005953;28;20045;-79
2022/11/29 01:07:55;;;;;;;25.73;18.93;;;8.00;99.90;;;;;;4973890;28;20042;-79
2022/11/29 01:10:21;;;;;;;28.33;18.87;;;8.00;99.90;;;;;;4990768;28;20050;-79
2022/11/29 01:12:47;;;;;;;25.03;18.60;;;8.00;99.90;;;;;;4991831;28;20483;-79
2022/11/29 01:15:13;;;;;;;27.20;20.47;;;8.00;99.90;;;;;;4990730;28;20029;-79
2022/11/29 01:17:39;;;;;;;25.67;20.63;;;7.90;99.90;;;;;;5007544;28;20049;-79
2022/11/29 01:20:06;;;;;;;29.73;21.37;;;8.00;99.90;;;;;;4988485;28;20395;-79
2022/11/29 01:22:36;;;;;;;31.77;22.00;;;8.10;99.90;;;;;;4992652;28;20042;-79
2022/11/29 01:25:03;;;;;;;28.37;20.53;;;8.10;99.90;;;;;;5017781;28;20484;-80
2022/11/29 01:27:29;;;;;;;21.90;18.30;;;8.10;99.90;;;;;;5004060;28;20043;-79
2022/11/29 01:29:55;;;;;;;24.57;17.53;;;8.00;99.90;;;;;;4973006;28;20036;-79
2022/11/29 01:32:21;;;;;;;21.60;17.80;;;8.00;99.90;;;;;;5005282;28;20045;-79
2022/11/29 01:34:47;;;;;;;27.40;17.97;;;7.90;99.90;;;;;;4972365;28;20494;-79
2022/11/29 01:37:13;;;;;;;22.70;18.00;;;7.80;99.90;;;;;;4991277;28;20042;-79
2022/11/29 01:39:39;;;;;;;28.03;19.03;;;7.80;99.90;;;;;;4974181;28;20041;-79
2022/11/29 01:42:05;;;;;;;24.87;18.53;;;7.80;99.90;;;;;;4980233;28;20121;-79
2022/11/29 01:44:32;;;;;;;29.20;20.23;;;7.70;99.90;;;;;;5005539;28;20034;-79
2022/11/29 01:46:58;;;;;;;25.80;21.33;;;7.70;99.90;;;;;;4990297;28;20053;-79
2022/11/29 01:49:28;;;;;;;28.87;21.30;;;7.70;99.90;;;;;;5006771;28;20038;-79
2022/11/29 01:51:54;;;;;;;24.23;21.17;;;7.70;99.90;;;;;;5022848;28;20522;-79
2022/11/29 01:54:20;;;;;;;29.17;22.60;;;7.80;99.90;;;;;;4994570;28;20026;-79
2022/11/29 01:56:47;;;;;;;29.60;21.97;;;7.80;99.90;;;;;;5009510;28;20038;-80
2022/11/29 01:59:14;;;;;;;22.03;19.70;;;7.80;99.90;;;;;;4978024;28;20039;-79
2022/11/29 02:01:41;;;;;;;26.73;19.53;;;7.80;99.90;;;;;;5008393;28;20042;-79
2022/11/29 02:04:07;;;;;;;29.00;20.20;;;7.80;99.90;;;;;;5009164;28;20034;-79
2022/11/29 02:06:34;;;;;;;25.33;19.83;;;7.70;99.90;;;;;;5010309;28;20046;-79
2022/11/29 02:09:00;;;;;;;30.90;20.27;;;7.70;99.90;;;;;;4993370;28;20423;-80
2022/11/29 02:11:38;;;;;;;27.33;20.07;;;7.70;99.90;;;;;;4994351;28;20027;-79
2022/11/29 02:14:22;;;;;;;30.33;20.10;;;7.70;99.90;;;;;;4994106;28;20419;-79
2022/11/29 02:17:16;;;;;;;27.90;19.17;;;7.70;99.90;;;;;;4993265;28;20038;-79
2022/11/29 02:19:45;;;;;;;22.40;18.63;;;7.70;99.90;;;;;;4994619;28;20044;-79
2022/11/29 02:22:22;;;;;;;28.43;19.73;;;7.70;99.90;;;;;;4992376;28;20403;-79
2022/11/29 02:25:13;;;;;;;26.60;19.10;;;7.70;99.90;;;;;;4978048;28;20038;-79
2022/11/29 02:28:17;;;;;;;24.92;20.13;;;7.70;99.90;;;;;;4992688;28;20503;-79
2022/11/29 02:31:22;;;;;;;25.07;18.17;;;7.80;99.90;;;;;;5006883;28;20530;-79
2022/11/29 02:34:09;;;;;;;28.70;19.07;;;7.70;99.90;;;;;;5018891;28;20380;-79
2022/11/29 02:36:54;;;;;;;24.33;17.87;;;7.80;99.90;;;;;;5007782;28;20522;-79
2022/11/29 02:39:49;;;;;;;23.47;18.33;;;7.80;99.90;;;;;;4992439;28;20037;-79
2022/11/29 02:42:49;;;;;;;31.10;18.43;;;7.70;99.90;;;;;;5012750;28;20368;-79
2022/11/29 02:45:39;;;;;;;23.93;17.83;;;7.70;99.90;;;;;;4992641;28;20371;-79
2022/11/29 02:48:43;;;;;;;25.08;17.38;;;7.70;99.90;;;;;;4994347;28;20042;-79
2022/11/29 02:51:23;;;;;;;39.93;17.40;;;7.60;99.90;;;;;;4993571;28;20034;-79
2022/11/29 02:54:01;;;;;;;30.87;17.77;;;7.60;99.90;;;;;;5012438;28;20031;-79
2022/11/29 02:56:30;;;;;;;25.93;18.07;;;7.60;99.90;;;;;;4992304;28;20034;-80
2022/11/29 02:59:40;;;;;;;29.43;18.07;;;7.60;99.90;;;;;;5024534;28;20050;-79
2022/11/29 03:02:24;;;;;;;33.93;18.37;;;7.50;99.90;;;;;;5019552;28;20034;-79
2022/11/29 03:05:07;;;;;;;24.50;18.20;;;7.50;99.90;;;;;;4989954;28;20034;-79
2022/11/29 03:07:48;;;;;;;29.93;18.67;;;7.50;99.90;;;;;;4976882;28;20060;-79
2022/11/29 03:10:27;;;;;;;27.67;18.77;;;7.50;99.90;;;;;;5002706;28;20049;-79
2022/11/29 03:12:54;;;;;;;29.93;17.73;;;7.50;99.90;;;;;;4989634;28;20038;-80
2022/11/29 03:15:36;;;;;;;24.63;18.47;;;7.50;99.90;;;;;;4978571;28;20395;-79
2022/11/29 03:18:27;;;;;;;28.67;19.63;;;7.50;99.90;;;;;;5003532;28;20053;-79
2022/11/29 03:21:28;;;;;;;25.85;20.15;;;7.40;99.90;;;;;;5021078;28;20046;-80
2022/11/29 03:23:58;;;;;;;25.63;17.60;;;7.50;99.90;;;;;;4969322;28;20047;-79
2022/11/29 03:26:37;;;;;;;23.03;17.60;;;7.60;99.90;;;;;;4953919;28;20049;-78
2022/11/29 03:29:29;;;;;;;25.73;18.77;;;7.50;99.90;;;;;;4938677;28;20070;-77
2022/11/29 03:32:25;;;;;;;22.05;19.90;;;7.40;99.90;;;;;;4944315;28;20500;-79
2022/11/29 03:34:57;;;;;;;34.50;17.63;;;7.40;99.90;;;;;;4940986;29;20055;-77
2022/11/29 03:37:43;;;;;;;20.37;16.40;;;7.30;99.90;;;;;;4933868;28;20074;-80
2022/11/29 03:40:17;;;;;;;26.53;19.03;;;7.30;99.90;;;;;;4948540;29;20027;-79
2022/11/29 03:42:55;;;;;;;24.70;18.37;;;7.30;99.90;;;;;;4932560;29;20038;-80
2022/11/29 03:46:02;;;;;;;22.40;18.27;;;7.20;99.90;;;;;;4922249;28;20034;-79
2022/11/29 03:48:50;;;;;;;20.17;17.17;;;7.30;99.90;;;;;;4940915;29;20059;-80
2022/11/29 03:51:28;;;;;;;21.90;16.23;;;7.30;99.90;;;;;;4934877;29;20148;-80
2022/11/29 03:53:59;;;;;;;22.70;16.97;;;7.30;99.90;;;;;;4916502;29;20043;-79
2022/11/29 03:56:38;;;;;;;23.90;16.25;;;7.30;99.90;;;;;;4932110;28;20087;-80
2022/11/29 03:59:25;;;;;;;25.10;16.50;;;7.20;99.90;;;;;;4936602;29;20079;-79
2022/11/29 04:02:22;;;;;;;17.63;15.73;;;7.20;99.90;;;;;;4936049;28;20041;-80
2022/11/29 04:05:13;;;;;;;21.30;15.80;;;7.20;99.90;;;;;;4961242;28;20130;-80
2022/11/29 04:07:42;;;;;;;;;;;7.20;99.90;;;;;;4967143;28;20054;-80
2022/11/29 04:10:46;;;;;;;30.10;17.27;;;7.20;99.90;;;;;;4986342;28;19910;-80
2022/11/29 04:13:34;;;;;;;28.07;17.53;;;7.30;99.90;;;;;;4971574;28;20035;-79
2022/11/29 04:16:18;;;;;;;27.07;18.97;;;7.20;99.90;;;;;;4967550;28;21101;-79
2022/11/29 04:18:44;;;;;;;20.83;17.90;;;7.20;99.90;;;;;;4976874;28;20043;-79
2022/11/29 04:21:32;;;;;;;32.50;19.40;;;7.20;99.90;;;;;;4979468;28;20408;-80
2022/11/29 04:24:18;;;;;;;24.93;18.87;;;7.20;99.90;;;;;;4992038;28;20057;-80
2022/11/29 04:26:54;;;;;;;25.03;17.73;;;7.10;99.90;;;;;;5020165;28;20054;-80
2022/11/29 04:29:20;;;;;;;25.13;20.20;;;7.10;99.90;;;;;;5023838;28;20046;-78
2022/11/29 04:32:19;;;;;;;23.90;21.37;;;7.10;99.90;;;;;;4991709;28;20038;-79
2022/11/29 04:34:51;;;;;;;28.10;21.90;;;7.20;99.90;;;;;;4991754;28;20038;-79
2022/11/29 04:37:27;;;;;;;27.50;21.57;;;7.10;99.90;;;;;;5007338;28;20051;-79
2022/11/29 04:40:15;;;;;;;27.27;22.13;;;7.20;99.90;;;;;;5021677;28;20399;-79
2022/11/29 04:43:03;;;;;;;71.60;24.67;;;7.20;99.90;;;;;;5008135;28;20050;-79
2022/11/29 04:45:41;;;;;;;35.77;22.23;;;7.30;99.90;;;;;;5005706;28;20391;-79
2022/11/29 04:48:49;;;;;;;27.60;21.77;;;7.20;99.90;;;;;;4991768;28;20382;-79
2022/11/29 04:51:15;;;;;;;35.27;22.80;;;7.20;99.90;;;;;;4953838;28;20523;-79
2022/11/29 04:53:53;;;;;;;25.87;20.50;;;7.30;99.90;;;;;;4978025;28;20491;-78
2022/11/29 04:56:44;;;;;;;1459.10;135.70;;;7.20;99.90;;;;;;4987206;28;20503;-79
2022/11/29 04:59:29;;;;;;;31.07;19.70;;;7.20;99.90;;;;;;4971410;28;20042;-78
2022/11/29 05:02:29;;;;;;;41.63;20.37;;;7.30;99.90;;;;;;5004575;28;20126;-79
2022/11/29 05:05:36;;;;;;;1103.10;77.53;;;7.30;99.90;;;;;;4973976;28;20491;-78
2022/11/29 05:08:21;;;;;;;77.43;21.77;;;7.30;99.90;;;;;;4907585;29;20059;-78
2022/11/29 05:11:18;;;;;;;30.77;20.30;;;7.40;99.90;;;;;;4928183;29;20044;-78
2022/11/29 05:14:16;;;;;;;24.97;19.53;;;7.40;99.90;;;;;;4911351;29;20378;-78
2022/11/29 05:16:42;;;;;;;29.53;21.80;;;7.40;99.90;;;;;;4911310;28;20043;-78
2022/11/29 05:19:27;;;;;;;116.57;24.03;;;7.50;99.90;;;;;;4934011;28;20038;-78
2022/11/29 05:22:16;;;;;;;28.87;21.43;;;7.50;99.90;;;;;;4951144;28;20104;-79
2022/11/29 05:25:01;;;;;;;30.57;20.43;;;7.50;99.90;;;;;;4938992;29;20047;-79
2022/11/29 05:27:46;;;;;;;30.17;20.47;;;7.50;99.90;;;;;;4897796;29;20426;-78
2022/11/29 05:30:17;;;;;;;36.30;22.37;;;7.40;99.90;;;;;;4900992;29;20039;-78
2022/11/29 05:32:52;;;;;;;;;;;7.50;99.90;;;;;;4886428;29;20040;-79
2022/11/29 05:35:24;;;;;;;24.60;22.23;;;7.50;99.90;;;;;;4930920;29;19911;-79
2022/11/29 05:38:23;;;;;;;1358.20;109.90;;;7.50;99.90;;;;;;4938752;28;20027;-78
2022/11/29 05:41:02;;;;;;;123.43;25.40;;;7.60;99.90;;;;;;4971552;28;20062;-79
2022/11/29 05:43:39;;;;;;;50.87;22.03;;;7.60;99.90;;;;;;4970873;28;20027;-78
2022/11/29 05:46:14;;;;;;;28.13;21.50;;;7.70;99.90;;;;;;4958151;28;20031;-79
2022/11/29 05:49:15;;;;;;;50.10;23.23;;;7.70;99.90;;;;;;4974377;28;20046;-79
2022/11/29 05:51:58;;;;;;;28.83;24.10;;;7.70;99.90;;;;;;4949355;28;20071;-79
2022/11/29 05:54:54;;;;;;;95.67;25.90;;;7.70;99.90;;;;;;4954194;28;20053;-78
2022/11/29 05:57:57;;;;;;;110.23;25.17;;;7.70;99.90;;;;;;4970283;28;20035;-79
2022/11/29 06:00:25;;;;;;;26.57;21.93;;;7.70;99.90;;;;;;4953887;28;20040;-78
2022/11/29 06:02:57;;;;;;;29.13;22.57;;;7.70;99.90;;;;;;4938103;29;20047;-78
2022/11/29 06:05:51;;;;;;;24.87;21.00;;;7.70;99.90;;;;;;4954361;28;20031;-79
2022/11/29 06:08:41;;;;;;;34.67;22.53;;;7.70;99.90;;;;;;4923170;28;20043;-79
2022/11/29 06:11:22;;;;;;;654.97;69.33;;;7.60;99.90;;;;;;4971063;28;20073;-79
2022/11/29 06:13:52;;;;;;;35.60;26.35;;;7.60;99.90;;;;;;4960922;28;20046;-78
2022/11/29 06:16:50;;;;;;;40.20;27.43;;;7.60;99.90;;;;;;4963042;28;20031;-79
2022/11/29 06:19:34;;;;;;;28.83;25.70;;;7.70;99.90;;;;;;4954668;29;20042;-79
2022/11/29 06:22:10;;;;;;;29.80;25.43;;;7.70;99.90;;;;;;4954499;28;20035;-79
2022/11/29 06:24:40;;;;;;;26.57;22.93;;;7.70;99.90;;;;;;4937622;29;20358;-79
2022/11/29 06:27:09;;;;;;;34.43;25.40;;;7.70;99.90;;;;;;4951058;29;20047;-79
2022/11/29 06:29:53;;;;;;;36.13;26.90;;;7.60;99.90;;;;;;4949034;29;20078;-79
2022/11/29 06:32:56;;;;;;;30.20;24.03;;;7.60;99.90;;;;;;4952426;28;20051;-79
2022/11/29 06:35:33;;;;;;;28.43;24.07;;;7.60;99.90;;;;;;5000891;28;20045;-79
2022/11/29 06:38:02;;;;;;;32.60;25.43;;;7.60;99.90;;;;;;5010248;28;20061;-79
2022/11/29 06:40:28;;;;;;;29.40;24.10;;;7.70;99.90;;;;;;4993353;28;20045;-78
2022/11/29 06:42:54;;;;;;;27.03;24.37;;;7.70;99.90;;;;;;5009494;28;20133;-79
2022/11/29 06:45:21;;;;;;;65.97;25.20;;;7.80;99.90;;;;;;5006703;28;20031;-78
2022/11/29 06:48:05;;;;;;;29.13;24.47;;;7.80;99.90;;;;;;5009370;28;20045;-78
2022/11/29 06:50:50;;;;;;;30.53;26.03;;;7.90;99.90;;;;;;4994008;28;20053;-79
2022/11/29 06:53:48;;;;;;;47.53;34.87;;;7.70;99.90;;;;;;5009572;28;20034;-79
2022/11/29 06:56:39;;;;;;;32.20;26.00;;;7.70;99.90;;;;;;5001092;28;20419;-78
2022/11/29 06:59:31;;;;;;;30.17;26.33;;;7.80;99.90;;;;;;4993635;28;20031;-78
2022/11/29 07:02:22;;;;;;;25.23;22.63;;;7.70;99.90;;;;;;4988439;28;20041;-78
2022/11/29 07:04:53;;;;;;;26.65;23.90;;;7.80;99.90;;;;;;5004727;28;20038;-79
2022/11/29 07:07:20;;;;;;;89.18;29.23;;;7.80;99.90;;;;;;5005555;28;20468;-78
2022/11/29 07:09:48;;;;;;;25.63;22.90;;;7.90;99.90;;;;;;4990010;28;20046;-79
2022/11/29 07:12:15;;;;;;;30.70;27.77;;;7.80;99.90;;;;;;4988880;28;20049;-79
2022/11/29 07:14:42;;;;;;;104.83;29.73;;;7.90;99.90;;;;;;4991339;28;20038;-80
2022/11/29 07:17:18;;;;;;;31.20;27.93;;;7.80;99.90;;;;;;4988995;28;20039;-79
2022/11/29 07:19:59;;;;;;;35.30;31.63;;;7.90;99.90;;;;;;4984423;28;20030;-79
2022/11/29 07:22:44;;;;;;;31.67;28.38;;;7.90;99.90;;;;;;4995770;28;20034;-79
2022/11/29 07:25:16;;;;;;;32.47;25.60;;;7.90;99.90;;;;;;5008082;28;20042;-79
2022/11/29 07:28:14;;;;;;;31.77;22.80;;;7.90;99.90;;;;;;4999517;28;20345;-80
2022/11/29 07:31:14;;;;;;;34.17;24.73;;;7.90;99.90;;;;;;4977306;28;20399;-80
2022/11/29 07:33:57;;;;;;;34.67;25.40;;;7.80;99.90;;;;;;5004317;28;20379;-79
2022/11/29 07:36:37;;;;;;;1163.63;95.17;;;7.90;99.90;;;;;;4992406;28;20041;-79
2022/11/29 07:39:16;;;;;;;24.80;22.37;;;7.90;99.90;;;;;;5006662;28;20030;-78
2022/11/29 07:41:51;;;;;;;32.13;24.23;;;7.90;99.90;;;;;;4957183;28;20101;-79
2022/11/29 07:44:42;;;;;;;48.53;29.17;;;7.80;99.90;;;;;;4992532;28;20046;-79
2022/11/29 07:47:08;;;;;;;28.67;20.92;;;7.80;99.90;;;;;;4990328;28;20030;-79
2022/11/29 07:49:34;;;;;;;31.77;23.33;;;7.80;99.90;;;;;;4990910;28;20053;-78
2022/11/29 07:52:00;;;;;;;455.93;46.73;;;7.70;99.90;;;;;;4960289;28;20038;-79
2022/11/29 07:54:27;;;;;;;26.27;23.57;;;7.70;99.90;;;;;;4991585;28;20041;-79
2022/11/29 07:56:53;;;;;;;28.63;21.70;;;7.70;99.90;;;;;;4990774;28;20041;-78
2022/11/29 07:59:19;;;;;;;23.60;18.93;;;7.70;99.90;;;;;;5008777;28;20034;-78
2022/11/29 08:01:45;;;;;;;25.40;22.50;;;7.80;99.90;;;;;;5006678;28;20037;-79
2022/11/29 08:04:11;;;;;;;25.90;21.13;;;7.80;99.90;;;;;;4993641;28;20038;-78
2022/11/29 08:06:37;;;;;;;27.70;25.17;;;7.50;99.90;;;;;;4991765;28;20101;-78
2022/11/29 08:09:03;;;;;;;31.77;26.40;;;7.40;99.90;;;;;;4993575;28;20049;-79
2022/11/29 08:11:29;;;;;;;31.73;26.37;;;7.40;99.90;;;;;;4969233;28;20036;-78
2022/11/29 08:13:57;;;;;;;32.23;28.07;;;7.50;99.90;;;;;;4988569;28;20042;-79
2022/11/29 08:16:23;;;;;;;30.27;26.07;;;7.60;99.90;;;;;;4995142;28;20037;-79
2022/11/29 08:18:49;;;;;;;34.07;25.00;;;7.60;99.90;;;;;;4964864;28;20045;-77
2022/11/29 08:21:16;;;;;;;27.07;24.20;;;7.60;99.90;;;;;;5024901;28;20042;-81
2022/11/29 08:23:44;;;;;;;30.77;27.50;;;7.60;99.90;;;;;;5024623;28;20035;-80
2022/11/29 08:26:10;;;;;;;27.23;23.47;;;7.90;99.90;;;;;;5004352;28;20045;-78
2022/11/29 08:28:37;;;;;;;35.53;31.33;;;8.00;99.90;;;;;;4965051;28;20047;-80
2022/11/29 08:31:04;;;;;;;36.23;33.10;;;8.00;99.90;;;;;;4984818;28;20038;-78
2022/11/29 08:33:30;;;;;;;36.67;33.15;;;8.00;99.90;;;;;;4987670;28;20395;-79
2022/11/29 08:36:04;;;;;;;46.00;41.23;;;8.10;99.90;;;;;;4986510;28;20039;-78
2022/11/29 08:38:30;;;;;;;39.30;35.38;;;8.10;99.90;;;;;;4970028;28;20026;-79
2022/11/29 08:41:01;;;;;;;31.60;28.33;;;8.10;99.90;;;;;;5007756;28;20486;-79
2022/11/29 08:43:28;;;;;;;38.33;33.75;;;8.20;99.90;;;;;;5006014;28;20039;-79
2022/11/29 08:45:54;;;;;;;38.60;33.80;;;8.20;99.90;;;;;;4962352;28;20031;-79
2022/11/29 08:48:20;;;;;;;34.37;31.20;;;8.20;99.90;;;;;;4968078;28;20065;-78
2022/11/29 08:50:50;;;;;;;38.90;35.13;;;8.20;99.90;;;;;;4988710;28;20384;-80
2022/11/29 08:56:01;;;;;;;49.17;41.30;;;8.30;99.90;;;;;;4996468;28;20033;-79
2022/11/29 08:58:27;;;;;;;31.43;28.33;;;8.30;99.90;;;;;;5004432;28;20471;-79
2022/11/29 09:00:53;;;;;;;27.57;24.83;;;8.30;99.90;;;;;;4978954;28;20415;-79
2022/11/29 09:06:12;;;;;;;32.10;28.80;;;8.50;99.90;;;;;;4979171;28;20042;-80
2022/11/29 09:08:38;;;;;;;37.83;33.28;;;8.50;99.90;;;;;;4992716;28;20039;-80
2022/11/29 09:11:12;;;;;;;37.72;33.92;;;8.50;99.90;;;;;;4996269;28;20030;-80
2022/11/29 09:13:42;;;;;;;32.75;29.40;;;8.50;99.90;;;;;;4991818;28;20379;-79
2022/11/29 09:16:09;;;;;;;35.72;26.33;;;8.40;99.90;;;;;;4998414;28;20471;-79
2022/11/29 09:18:36;;;;;;;36.75;28.30;;;8.40;99.90;;;;;;4988217;28;20027;-79
2022/11/29 09:21:07;;;;;;;35.70;29.67;;;8.40;99.90;;;;;;5001140;28;20711;-79
2022/11/29 09:23:36;;;;;;;;;;;8.50;99.90;;;;;;4976402;28;20403;-79
2022/11/29 09:26:03;;;;;;;30.15;26.95;;;8.60;99.90;;;;;;4985994;28;19922;-80
2022/11/29 09:28:29;;;;;;;32.97;27.70;;;8.70;99.90;;;;;;5004242;28;20054;-78
2022/11/29 09:30:55;;;;;;;412.77;53.92;;;8.70;99.90;;;;;;4960785;28;20045;-77
2022/11/29 09:33:21;;;;;;;35.03;27.02;;;8.70;99.90;;;;;;4977827;28;20073;-78
2022/11/29 09:35:47;;;;;;;31.40;28.50;;;8.80;99.90;;;;;;4959942;28;20038;-77
2022/11/29 09:38:13;;;;;;;39.13;31.40;;;8.80;99.90;;;;;;5007811;28;20042;-77
2022/11/29 09:40:50;;;;;;;40.58;31.92;;;8.90;99.90;;;;;;5010753;28;20030;-81
2022/11/29 09:43:28;;;;;;;32.10;28.77;;;8.90;99.90;;;;;;4979589;28;20042;-77
2022/11/29 09:46:16;;;;;;;31.88;29.08;;;9.10;99.90;;;;;;5014136;28;20031;-77
2022/11/29 09:49:16;;;;;;;43.28;29.75;;;9.10;99.90;;;;;;4996055;28;20038;-78
2022/11/29 09:52:02;;;;;;;40.22;36.70;;;9.20;99.90;;;;;;5011733;28;20125;-78
2022/11/29 09:54:53;;;;;;;40.83;34.95;;;9.10;99.90;;;;;;4974019;28;20404;-77
2022/11/29 09:57:22;;;;;;;33.42;30.27;;;9.20;99.90;;;;;;4941385;28;20516;-77
2022/11/29 09:59:50;;;;;;;33.10;29.58;;;9.20;99.90;;;;;;4926784;28;20031;-78
2022/11/29 10:02:18;;;;;;;30.88;27.75;;;9.20;99.90;;;;;;4924437;29;20035;-77
2022/11/29 10:04:47;;;;;;;32.08;27.52;;;9.20;99.90;;;;;;4938160;28;20038;-77
2022/11/29 10:07:33;;;;;;;33.42;29.58;;;9.20;99.90;;;;;;4933706;29;20516;-77
2022/11/29 10:10:13;;;;;;;43.60;38.22;;;9.20;99.90;;;;;;4921121;29;20047;-77
2022/11/29 10:12:51;;;;;;;37.83;33.90;;;9.30;99.90;;;;;;4921082;29;20035;-78
2022/11/29 10:15:21;;;;;;;35.20;31.77;;;9.40;99.90;;;;;;4939249;28;20042;-77
2022/11/29 10:18:08;;;;;;;36.55;32.22;;;9.40;99.90;;;;;;4973838;28;20053;-78
2022/11/29 10:20:36;;;;;;;36.85;32.70;;;9.40;99.90;;;;;;4982510;28;20468;-77
2022/11/29 10:23:30;;;;;;;35.63;32.35;;;9.50;99.90;;;;;;4954056;29;20427;-77
2022/11/29 10:25:57;;;;;;;35.70;32.35;;;9.50;99.90;;;;;;4954527;28;20063;-77
2022/11/29 10:28:25;;;;;;;35.50;32.13;;;9.60;99.90;;;;;;4954448;29;20070;-78
2022/11/29 10:30:55;;;;;;;39.78;35.95;;;9.60;99.90;;;;;;4957555;28;20042;-77
2022/11/29 10:33:27;;;;;;;35.60;31.90;;;9.70;99.90;;;;;;4991618;28;20389;-78
2022/11/29 10:35:58;;;;;;;36.83;33.72;;;9.80;99.90;;;;;;5006145;28;20507;-77
2022/11/29 10:38:24;;;;;;;34.45;26.85;;;9.90;99.90;;;;;;4967078;28;20039;-78
2022/11/29 10:40:56;;;;;;;27.20;24.30;;;9.90;99.90;;;;;;4973999;28;20058;-77
2022/11/29 10:43:23;;;;;;;23.88;21.77;;;9.80;99.90;;;;;;4973439;28;20051;-77
2022/11/29 10:45:54;;;;;;;26.92;19.42;;;9.80;99.90;;;;;;4974076;28;20038;-79
2022/11/29 10:48:22;;;;;;;24.67;20.55;;;9.80;99.90;;;;;;4974968;28;20400;-81
2022/11/29 10:50:49;;;;;;;31.48;22.05;;;9.70;99.90;;;;;;4973238;28;20054;-79
2022/11/29 10:53:17;;;;;;;31.05;26.15;;;9.70;99.90;;;;;;4990226;28;20035;-80
2022/11/29 10:55:52;;;;;;;31.42;24.67;;;9.80;99.90;;;;;;4989181;28;20030;-77
2022/11/29 10:58:23;;;;;;;25.15;19.95;;;9.80;99.90;;;;;;5006856;28;20485;-77
2022/11/29 11:00:53;;;;;;;29.42;22.55;;;9.90;99.90;;;;;;4987709;28;20046;-76
2022/11/29 11:03:31;;;;;;;23.33;21.13;;;9.90;99.90;;;;;;5006434;28;20015;-80
2022/11/29 11:05:58;;;;;;;28.50;24.13;;;9.90;99.90;;;;;;4991754;28;20033;-78
2022/11/29 11:08:25;;;;;;;27.00;22.15;;;9.90;99.90;;;;;;5007786;28;20475;-79
2022/11/29 11:10:55;;;;;;;26.02;22.20;;;10.00;99.90;;;;;;4961657;28;20043;-77
2022/11/29 11:13:23;;;;;;;24.08;21.73;;;10.00;99.90;;;;;;4981368;28;20101;-80
2022/11/29 11:15:54;;;;;;;27.20;21.10;;;10.00;99.90;;;;;;4996343;28;20034;-79
2022/11/29 11:18:21;;;;;;;24.90;21.40;;;10.10;99.90;;;;;;4981242;28;20041;-78
2022/11/29 11:20:58;;;;;;;26.35;23.85;;;10.20;99.90;;;;;;4974979;28;20034;-78
2022/11/29 11:23:25;;;;;;;24.77;22.20;;;10.20;99.90;;;;;;5009290;28;20019;-79
2022/11/29 11:26:05;;;;;;;23.23;20.98;;;10.30;99.90;;;;;;4992273;28;20050;-79
2022/11/29 11:28:47;;;;;;;26.02;23.70;;;10.40;99.90;;;;;;4989001;28;20049;-79
2022/11/29 11:31:13;;;;;;;19.95;17.52;;;10.50;99.90;;;;;;4990865;28;20030;-78
2022/11/29 11:33:39;;;;;;;21.83;19.52;;;10.70;99.90;;;;;;4973017;28;20038;-79
2022/11/29 11:36:18;;;;;;;21.63;19.52;;;10.80;99.90;;;;;;4988028;28;20062;-78
2022/11/29 11:38:55;;;;;;;28.23;19.58;;;10.70;99.90;;;;;;4989508;28;20500;-78
2022/11/29 11:44:48;;;;;;;29.85;24.63;;;10.90;99.90;;;;;;5019540;28;20399;-77
2022/11/29 11:47:25;;;;;;;23.05;20.85;;;10.90;99.90;;;;;;4971387;28;20049;-78
2022/11/29 11:50:05;;;;;;;22.88;19.42;;;10.90;99.90;;;;;;4988235;28;20050;-77
2022/11/29 11:52:54;;;;;;;23.90;21.65;;;11.00;99.90;;;;;;4986163;28;20039;-77
2022/11/29 11:55:20;;;;;;;23.35;19.27;;;11.10;99.90;;;;;;4972001;28;20030;-78
2022/11/29 11:58:06;;;;;;;25.05;22.50;;;11.20;99.90;;;;;;4972953;28;20030;-78
2022/11/29 12:00:52;;;;;;;24.73;20.13;;;11.20;99.90;;;;;;4957569;28;20023;-78
2022/11/29 12:03:43;;;;;;;22.77;20.50;;;11.20;99.90;;;;;;4984075;28;20031;-78
2022/11/29 12:06:29;;;;;;;;;;;11.20;99.90;;;;;;4985868;28;20039;-78
2022/11/29 12:09:03;;;;;;;26.20;19.73;;;11.30;99.90;;;;;;4972628;28;19929;-78
2022/11/29 12:11:50;;;;;;;21.02;17.40;;;11.20;99.90;;;;;;4970596;28;20046;-78
2022/11/29 12:14:31;;;;;;;18.33;16.70;;;11.20;99.90;;;;;;5010931;28;20026;-77
2022/11/29 12:17:13;;;;;;;18.73;16.87;;;11.10;99.90;;;;;;5006725;28;20026;-78
2022/11/29 12:20:21;;;;;;;20.83;18.85;;;11.10;99.90;;;;;;4979901;28;20285;-77
2022/11/29 12:22:50;;;;;;;20.90;19.05;;;11.20;99.90;;;;;;4973654;28;20035;-78
2022/11/29 12:25:28;;;;;;;25.17;22.70;;;11.30;99.90;;;;;;4980141;28;20491;-77
2022/11/29 12:27:54;;;;;;;19.25;17.58;;;11.30;99.90;;;;;;4991925;28;20034;-78
2022/11/29 12:30:20;;;;;;;22.23;18.50;;;11.30;99.90;;;;;;4994972;28;20046;-78
2022/11/29 12:32:53;;;;;;;18.50;16.90;;;11.30;99.90;;;;;;4992107;28;20388;-78
2022/11/29 12:35:25;;;;;;;17.77;16.00;;;11.30;99.90;;;;;;4990729;28;20023;-78
2022/11/29 12:38:07;;;;;;;19.35;17.75;;;11.40;99.90;;;;;;4990319;28;20039;-78
2022/11/29 12:40:39;;;;;;;20.63;18.55;;;11.40;99.90;;;;;;4991365;28;20379;-78
2022/11/29 12:43:16;;;;;;;20.10;18.17;;;11.40;99.90;;;;;;4958340;28;20468;-78
2022/11/29 12:46:03;;;;;;;24.67;19.65;;;11.30;99.90;;;;;;4958025;28;20392;-78
2022/11/29 12:48:41;;;;;;;20.35;18.42;;;11.30;99.90;;;;;;4980891;28;20038;-78
2022/11/29 12:51:13;;;;;;;24.67;20.50;;;11.30;99.90;;;;;;4973639;28;20054;-78
2022/11/29 12:54:34;;;;;;;25.27;21.67;;;11.50;99.90;;;;;;4994408;28;20043;-77
2022/11/29 12:57:21;;;;;;;21.00;18.27;;;11.40;99.90;;;;;;4894269;29;20044;-78
2022/11/29 13:00:05;;;;;;;18.25;16.63;;;11.50;99.90;;;;;;4857134;29;20042;-78
2022/11/29 13:02:39;;;;;;;16.90;15.25;;;11.50;99.90;;;;;;4871705;29;20042;-78
2022/11/29 13:05:17;;;;;;;21.10;19.00;;;11.70;99.90;;;;;;4854325;29;20040;-78
2022/11/29 13:08:05;;;;;;;23.90;21.40;;;11.60;99.90;;;;;;4855288;29;20388;-78
2022/11/29 13:10:57;;;;;;;17.65;15.85;;;11.60;99.90;;;;;;4840947;29;20050;-78
2022/11/29 13:13:42;;;;;;;15.65;14.32;;;11.60;99.90;;;;;;4810900;29;20045;-77
2022/11/29 13:16:20;;;;;;;17.25;14.68;;;11.50;99.90;;;;;;4823286;29;20073;-78
2022/11/29 13:19:03;;;;;;;19.73;17.85;;;11.40;99.90;;;;;;4839232;29;20045;-78
2022/11/29 13:22:00;;;;;;;20.83;18.83;;;11.50;99.90;;;;;;4856191;29;20046;-78
2022/11/29 13:24:32;;;;;;;20.50;18.65;;;11.50;99.90;;;;;;4841496;29;20598;-78
2022/11/29 13:27:01;;;;;;;18.55;16.90;;;11.50;99.90;;;;;;4856084;29;20053;-78
2022/11/29 13:29:27;;;;;;;17.67;16.27;;;11.60;99.90;;;;;;4847610;29;20061;-78
2022/11/29 13:31:53;;;;;;;19.23;17.10;;;11.70;99.90;;;;;;4828500;29;20041;-77